Wetterdaten: Woche 14.06.10 - 20.06.10 (KW24)
Datum Zeit Temperatur Luftfeuchte Luftdruck Niederschlag Windrichtung Sonnenschein Solar Wind
14.06.2010 00:00 13,4 C 97 % 1010,5 hPa 0,2 l/m N 0,00 h 0 W/m 0,3 km/h (0 Bft)
14.06.2010 01:00 13,4 C 97 % 1010,1 hPa 0,2 l/m N 0,00 h 0 W/m 0,0 km/h (0 Bft)
14.06.2010 02:00 13,4 C 98 % 1010,0 hPa 0,8 l/m N 0,00 h 0 W/m 0,0 km/h (0 Bft)
14.06.2010 03:00 13,4 C 98 % 1009,9 hPa 0,0 l/m N 0,00 h 0 W/m 0,1 km/h (0 Bft)
14.06.2010 04:00 13,6 C 98 % 1009,6 hPa 0,0 l/m N 0,00 h 0 W/m 1,7 km/h (1 Bft)
14.06.2010 05:00 13,4 C 98 % 1009,9 hPa 0,0 l/m W-SW 0,00 h 9 W/m 4,4 km/h (1 Bft)
14.06.2010 06:00 13,4 C 98 % 1010,2 hPa 0,0 l/m W-SW 0,00 h 18 W/m 4,8 km/h (1 Bft)
14.06.2010 07:00 14,0 C 96 % 1010,6 hPa 0,0 l/m W-NW 0,25 h 158 W/m 6,8 km/h (2 Bft)
14.06.2010 08:00 14,6 C 91 % 1011,1 hPa 0,2 l/m W-NW 0,17 h 199 W/m 8,2 km/h (2 Bft)
14.06.2010 09:00 15,1 C 87 % 1011,4 hPa 0,0 l/m W-NW 0,17 h 274 W/m 6,9 km/h (2 Bft)
14.06.2010 10:00 15,9 C 85 % 1012,0 hPa 0,0 l/m SW 0,25 h 353 W/m 7,2 km/h (2 Bft)
14.06.2010 11:00 17,1 C 76 % 1012,3 hPa 0,0 l/m SW 0,58 h 585 W/m 9,8 km/h (2 Bft)
14.06.2010 12:00 18,6 C 66 % 1012,4 hPa 0,0 l/m SW 0,92 h 893 W/m 10,1 km/h (2 Bft)
14.06.2010 13:00 19,2 C 62 % 1012,3 hPa 0,0 l/m W-SW 0,67 h 716 W/m 9,4 km/h (2 Bft)
14.06.2010 14:00 20,4 C 56 % 1012,1 hPa 0,0 l/m SW 0,92 h 746 W/m 11,5 km/h (2 Bft)
14.06.2010 15:00 20,7 C 55 % 1011,9 hPa 0,0 l/m SW 0,75 h 689 W/m 11,4 km/h (2 Bft)
14.06.2010 16:00 20,4 C 54 % 1011,9 hPa 0,0 l/m O-SO 0,17 h 332 W/m 7,1 km/h (2 Bft)
14.06.2010 17:00 20,7 C 52 % 1011,6 hPa 0,0 l/m N-NO 0,75 h 489 W/m 7,2 km/h (2 Bft)
14.06.2010 18:00 20,5 C 53 % 1011,5 hPa 0,0 l/m O-SO 0,17 h 208 W/m 8,3 km/h (2 Bft)
14.06.2010 19:00 20,5 C 53 % 1011,8 hPa 0,0 l/m O 0,17 h 100 W/m 9,3 km/h (2 Bft)
14.06.2010 20:00 19,5 C 59 % 1012,0 hPa 0,0 l/m O 0,00 h 16 W/m 4,4 km/h (1 Bft)
14.06.2010 21:00 18,0 C 68 % 1012,4 hPa 0,0 l/m N 0,00 h 5 W/m 1,9 km/h (1 Bft)
14.06.2010 22:00 16,1 C 75 % 1013,1 hPa 0,0 l/m N 0,00 h 0 W/m 2,0 km/h (1 Bft)
14.06.2010 23:00 14,8 C 80 % 1012,9 hPa 0,0 l/m N 0,00 h 0 W/m 3,5 km/h (1 Bft)
15.06.2010 00:00 14,0 C 82 % 1013,1 hPa 0,0 l/m N-NO 0,00 h 0 W/m 4,7 km/h (1 Bft)
15.06.2010 01:00 13,7 C 83 % 1013,4 hPa 0,0 l/m NO 0,00 h 0 W/m 6,4 km/h (2 Bft)
15.06.2010 02:00 13,4 C 84 % 1013,2 hPa 0,0 l/m N-NO 0,00 h 0 W/m 7,5 km/h (2 Bft)
15.06.2010 03:00 13,3 C 87 % 1012,7 hPa 0,0 l/m NO 0,00 h 0 W/m 9,1 km/h (2 Bft)
15.06.2010 04:00 13,0 C 91 % 1012,2 hPa 0,0 l/m N-NO 0,00 h 0 W/m 8,3 km/h (2 Bft)
15.06.2010 05:00 13,1 C 93 % 1012,2 hPa 0,0 l/m N-NO 0,00 h 7 W/m 8,9 km/h (2 Bft)
15.06.2010 06:00 13,3 C 93 % 1012,4 hPa 0,0 l/m NO 0,00 h 21 W/m 10,8 km/h (2 Bft)
15.06.2010 07:00 13,5 C 94 % 1012,3 hPa 0,0 l/m N-NO 0,00 h 37 W/m 11,2 km/h (2 Bft)
15.06.2010 08:00 13,8 C 95 % 1013,0 hPa 0,8 l/m N-NO 0,00 h 50 W/m 11,6 km/h (2 Bft)
15.06.2010 09:00 14,3 C 96 % 1013,2 hPa 0,4 l/m N-NO 0,00 h 116 W/m 10,5 km/h (2 Bft)
15.06.2010 10:00 14,9 C 95 % 1013,2 hPa 0,0 l/m O-NO 0,00 h 137 W/m 11,7 km/h (2 Bft)
15.06.2010 11:00 15,5 C 94 % 1013,6 hPa 0,0 l/m NO 0,00 h 199 W/m 14,8 km/h (3 Bft)
15.06.2010 12:00 16,5 C 90 % 1013,7 hPa 0,0 l/m O-NO 0,00 h 269 W/m 16,1 km/h (3 Bft)
15.06.2010 13:00 17,0 C 85 % 1013,7 hPa 0,0 l/m NO 0,00 h 201 W/m 18,8 km/h (3 Bft)
15.06.2010 14:00 17,5 C 84 % 1013,5 hPa 0,0 l/m O-NO 0,00 h 265 W/m 21,6 km/h (4 Bft)
15.06.2010 15:00 17,9 C 82 % 1013,7 hPa 0,0 l/m NO 0,00 h 232 W/m 20,6 km/h (4 Bft)
15.06.2010 16:00 18,3 C 81 % 1013,5 hPa 0,0 l/m O-NO 0,00 h 294 W/m 23,2 km/h (4 Bft)
15.06.2010 17:00 18,4 C 81 % 1013,2 hPa 0,0 l/m NO 0,00 h 174 W/m 20,8 km/h (4 Bft)
15.06.2010 18:00 18,1 C 82 % 1013,2 hPa 0,0 l/m O-NO 0,00 h 95 W/m 20,2 km/h (4 Bft)
15.06.2010 19:00 17,8 C 82 % 1013,1 hPa 0,0 l/m NO 0,00 h 63 W/m 17,4 km/h (3 Bft)
15.06.2010 20:00 17,6 C 83 % 1013,0 hPa 0,0 l/m O-NO 0,00 h 32 W/m 17,8 km/h (3 Bft)
15.06.2010 21:00 17,0 C 85 % 1013,1 hPa 0,0 l/m O-NO 0,00 h 8 W/m 17,6 km/h (3 Bft)
15.06.2010 22:00 16,7 C 86 % 1013,6 hPa 0,0 l/m O-NO 0,00 h 0 W/m 19,0 km/h (3 Bft)
15.06.2010 23:00 16,5 C 85 % 1013,5 hPa 0,0 l/m O-NO 0,00 h 0 W/m 19,4 km/h (3 Bft)
16.06.2010 00:00 16,1 C 84 % 1013,2 hPa 0,0 l/m NO 0,00 h 0 W/m 19,2 km/h (3 Bft)
16.06.2010 01:00 15,6 C 85 % 1012,8 hPa 0,0 l/m O-NO 0,00 h 0 W/m 19,2 km/h (3 Bft)
16.06.2010 02:00 15,3 C 87 % 1012,4 hPa 0,0 l/m NO 0,00 h 0 W/m 20,2 km/h (4 Bft)
16.06.2010 03:00 15,0 C 86 % 1012,0 hPa 0,0 l/m NO 0,00 h 0 W/m 20,5 km/h (4 Bft)
16.06.2010 04:00 14,6 C 86 % 1011,8 hPa 0,0 l/m NO 0,00 h 0 W/m 21,4 km/h (4 Bft)
16.06.2010 05:00 14,1 C 86 % 1011,5 hPa 0,0 l/m O-NO 0,00 h 5 W/m 22,1 km/h (4 Bft)
16.06.2010 06:00 13,7 C 86 % 1011,1 hPa 0,0 l/m O-NO 0,00 h 22 W/m 22,6 km/h (4 Bft)
16.06.2010 07:00 13,7 C 85 % 1010,5 hPa 0,0 l/m O-NO 0,00 h 30 W/m 26,5 km/h (4 Bft)
16.06.2010 08:00 13,6 C 84 % 1010,6 hPa 0,0 l/m NO 0,00 h 60 W/m 26,3 km/h (4 Bft)
16.06.2010 09:00 13,6 C 84 % 1010,6 hPa 0,0 l/m NO 0,00 h 78 W/m 24,8 km/h (4 Bft)
16.06.2010 10:00 13,4 C 86 % 1010,9 hPa 0,0 l/m O-NO 0,00 h 64 W/m 22,8 km/h (4 Bft)
16.06.2010 11:00 13,2 C 89 % 1011,3 hPa 0,2 l/m NO 0,00 h 89 W/m 23,6 km/h (4 Bft)
16.06.2010 12:00 13,0 C 91 % 1011,7 hPa 1,0 l/m NO 0,00 h 92 W/m 23,3 km/h (4 Bft)
16.06.2010 13:00 12,7 C 94 % 1011,9 hPa 2,8 l/m O 0,00 h 138 W/m 23,4 km/h (4 Bft)
16.06.2010 14:00 12,8 C 94 % 1011,9 hPa 2,0 l/m O-NO 0,00 h 109 W/m 24,5 km/h (4 Bft)
16.06.2010 15:00 12,6 C 94 % 1012,2 hPa 1,2 l/m O-NO 0,00 h 83 W/m 24,1 km/h (4 Bft)
16.06.2010 16:00 12,5 C 93 % 1012,5 hPa 0,8 l/m O-NO 0,00 h 104 W/m 25,2 km/h (4 Bft)
16.06.2010 17:00 12,7 C 94 % 1012,6 hPa 0,4 l/m O-NO 0,00 h 83 W/m 21,6 km/h (4 Bft)
16.06.2010 18:00 12,6 C 95 % 1012,6 hPa 1,8 l/m O-NO 0,00 h 64 W/m 25,1 km/h (4 Bft)
16.06.2010 19:00 12,4 C 95 % 1012,8 hPa 0,8 l/m O 0,00 h 22 W/m 20,4 km/h (4 Bft)
16.06.2010 20:00 12,4 C 95 % 1013,0 hPa 0,2 l/m O-NO 0,00 h 15 W/m 23,7 km/h (4 Bft)
16.06.2010 21:00 12,5 C 94 % 1013,1 hPa 0,0 l/m NO 0,00 h 0 W/m 20,4 km/h (4 Bft)
16.06.2010 22:00 12,4 C 95 % 1013,3 hPa 0,0 l/m O-NO 0,00 h 0 W/m 19,0 km/h (3 Bft)
16.06.2010 23:00 12,3 C 95 % 1013,1 hPa 0,0 l/m O 0,00 h 0 W/m 17,0 km/h (3 Bft)
17.06.2010 00:00 12,3 C 95 % 1012,9 hPa 0,0 l/m O-NO 0,00 h 0 W/m 15,4 km/h (3 Bft)
17.06.2010 01:00 12,3 C 96 % 1012,9 hPa 0,0 l/m O-SO 0,00 h 0 W/m 12,5 km/h (3 Bft)
17.06.2010 02:00 12,2 C 97 % 1012,4 hPa 0,0 l/m O-NO 0,00 h 0 W/m 9,4 km/h (2 Bft)
17.06.2010 03:00 12,2 C 97 % 1011,7 hPa 0,2 l/m O-NO 0,00 h 0 W/m 9,0 km/h (2 Bft)
17.06.2010 04:00 12,2 C 97 % 1011,1 hPa 0,0 l/m O-NO 0,00 h 0 W/m 10,6 km/h (2 Bft)
17.06.2010 05:00 12,3 C 97 % 1011,0 hPa 0,0 l/m O-NO 0,00 h 6 W/m 7,2 km/h (2 Bft)
17.06.2010 06:00 12,5 C 98 % 1011,0 hPa 0,2 l/m O-NO 0,00 h 15 W/m 6,8 km/h (2 Bft)
17.06.2010 07:00 12,7 C 98 % 1011,3 hPa 0,0 l/m O-NO 0,00 h 42 W/m 4,7 km/h (1 Bft)
17.06.2010 08:00 13,1 C 98 % 1011,6 hPa 0,0 l/m SO 0,00 h 55 W/m 2,3 km/h (1 Bft)
17.06.2010 09:00 13,5 C 96 % 1011,7 hPa 0,0 l/m O 0,00 h 83 W/m 3,7 km/h (1 Bft)
17.06.2010 10:00 14,1 C 93 % 1012,0 hPa 0,0 l/m O 0,00 h 143 W/m 4,0 km/h (1 Bft)
17.06.2010 11:00 14,6 C 91 % 1011,9 hPa 0,0 l/m O-NO 0,08 h 194 W/m 3,7 km/h (1 Bft)
17.06.2010 12:00 15,0 C 91 % 1012,1 hPa 0,0 l/m NO 0,00 h 153 W/m 7,9 km/h (2 Bft)
17.06.2010 13:00 15,9 C 87 % 1012,1 hPa 0,0 l/m NO 0,08 h 360 W/m 10,2 km/h (2 Bft)
17.06.2010 14:00 15,5 C 89 % 1011,9 hPa 0,0 l/m NO 0,00 h 218 W/m 14,9 km/h (3 Bft)
17.06.2010 15:00 15,7 C 88 % 1011,8 hPa 0,0 l/m N-NO 0,00 h 280 W/m 14,5 km/h (3 Bft)
17.06.2010 16:00 15,7 C 87 % 1011,6 hPa 0,0 l/m N-NO 0,00 h 198 W/m 12,2 km/h (2 Bft)
17.06.2010 17:00 15,3 C 89 % 1011,3 hPa 0,0 l/m N-NO 0,00 h 112 W/m 12,9 km/h (3 Bft)
17.06.2010 18:00 14,6 C 93 % 1011,5 hPa 1,6 l/m O-NO 0,00 h 22 W/m 8,6 km/h (2 Bft)
17.06.2010 19:00 14,0 C 96 % 1011,1 hPa 2,8 l/m NO 0,00 h 19 W/m 3,5 km/h (1 Bft)
17.06.2010 20:00 13,7 C 97 % 1011,1 hPa 2,0 l/m N 0,00 h 10 W/m 1,5 km/h (1 Bft)
17.06.2010 21:00 13,7 C 98 % 1011,3 hPa 1,6 l/m NO 0,00 h 0 W/m 4,0 km/h (1 Bft)
17.06.2010 22:00 13,4 C 98 % 1011,3 hPa 1,4 l/m W-SW 0,00 h 0 W/m 4,3 km/h (1 Bft)
17.06.2010 23:00 13,1 C 97 % 1011,0 hPa 0,2 l/m W-SW 0,00 h 0 W/m 13,0 km/h (3 Bft)
18.06.2010 00:00 12,8 C 97 % 1011,0 hPa 0,2 l/m SW 0,00 h 0 W/m 6,0 km/h (2 Bft)
18.06.2010 01:00 12,8 C 97 % 1010,6 hPa 2,2 l/m SW 0,00 h 0 W/m 11,5 km/h (2 Bft)
18.06.2010 02:00 12,5 C 97 % 1010,0 hPa 2,0 l/m W-SW 0,00 h 0 W/m 18,5 km/h (3 Bft)
18.06.2010 03:00 12,2 C 97 % 1009,5 hPa 1,4 l/m SW 0,00 h 0 W/m 19,4 km/h (3 Bft)
18.06.2010 04:00 12,1 C 97 % 1009,1 hPa 2,2 l/m SW 0,00 h 0 W/m 12,0 km/h (2 Bft)
18.06.2010 05:00 12,1 C 97 % 1008,8 hPa 3,0 l/m SW 0,00 h 5 W/m 12,5 km/h (3 Bft)
18.06.2010 06:00 12,0 C 98 % 1008,5 hPa 7,0 l/m W-SW 0,00 h 9 W/m 14,1 km/h (3 Bft)
18.06.2010 07:00 12,1 C 98 % 1008,4 hPa 1,8 l/m W-SW 0,00 h 26 W/m 14,6 km/h (3 Bft)
18.06.2010 08:00 12,3 C 98 % 1008,4 hPa 3,2 l/m W 0,00 h 24 W/m 13,3 km/h (3 Bft)
18.06.2010 09:00 12,5 C 98 % 1008,8 hPa 3,8 l/m W 0,00 h 45 W/m 16,4 km/h (3 Bft)
18.06.2010 10:00 12,6 C 98 % 1009,1 hPa 2,4 l/m W-SW 0,00 h 78 W/m 18,2 km/h (3 Bft)
18.06.2010 11:00 12,8 C 97 % 1009,5 hPa 0,8 l/m W 0,00 h 90 W/m 18,9 km/h (3 Bft)
18.06.2010 12:00 13,0 C 97 % 1009,8 hPa 0,4 l/m W 0,00 h 103 W/m 19,4 km/h (3 Bft)
18.06.2010 13:00 13,1 C 96 % 1010,0 hPa 1,6 l/m W-SW 0,00 h 80 W/m 13,8 km/h (3 Bft)
18.06.2010 14:00 13,2 C 96 % 1010,1 hPa 2,2 l/m W-SW 0,00 h 105 W/m 15,8 km/h (3 Bft)
18.06.2010 15:00 13,6 C 97 % 1010,4 hPa 1,2 l/m W 0,00 h 174 W/m 8,2 km/h (2 Bft)
18.06.2010 16:00 14,8 C 96 % 1010,1 hPa 0,0 l/m W-SW 0,00 h 237 W/m 9,0 km/h (2 Bft)
18.06.2010 17:00 15,0 C 96 % 1009,7 hPa 0,0 l/m S-SW 0,08 h 216 W/m 13,8 km/h (3 Bft)
18.06.2010 18:00 15,5 C 94 % 1009,5 hPa 0,0 l/m SW 0,67 h 328 W/m 16,9 km/h (3 Bft)
18.06.2010 19:00 15,4 C 94 % 1009,3 hPa 0,0 l/m SW 0,08 h 117 W/m 18,6 km/h (3 Bft)
18.06.2010 20:00 14,5 C 95 % 1008,8 hPa 0,0 l/m SW 0,08 h 34 W/m 19,8 km/h (4 Bft)
18.06.2010 21:00 13,8 C 95 % 1008,6 hPa 0,0 l/m SW 0,00 h 8 W/m 18,1 km/h (3 Bft)
18.06.2010 22:00 13,4 C 96 % 1008,6 hPa 0,0 l/m SW 0,00 h 0 W/m 15,8 km/h (3 Bft)
18.06.2010 23:00 12,9 C 94 % 1008,9 hPa 5,6 l/m N-NW 0,00 h 0 W/m 6,6 km/h (2 Bft)
19.06.2010 00:00 12,3 C 95 % 1008,4 hPa 0,8 l/m W 0,00 h 0 W/m 1,7 km/h (1 Bft)
19.06.2010 01:00 12,1 C 96 % 1008,0 hPa 0,2 l/m W 0,00 h 0 W/m 2,1 km/h (1 Bft)
19.06.2010 02:00 11,9 C 97 % 1007,5 hPa 1,0 l/m N 0,00 h 0 W/m 0,5 km/h (0 Bft)
19.06.2010 03:00 11,8 C 97 % 1007,1 hPa 0,0 l/m W-NW 0,00 h 0 W/m 5,0 km/h (1 Bft)
19.06.2010 04:00 11,5 C 97 % 1006,4 hPa 0,0 l/m N-NW 0,00 h 0 W/m 7,5 km/h (2 Bft)
19.06.2010 05:00 11,1 C 96 % 1006,2 hPa 0,0 l/m N-NW 0,00 h 5 W/m 7,5 km/h (2 Bft)
19.06.2010 06:00 10,8 C 96 % 1006,2 hPa 0,0 l/m N-NO 0,00 h 16 W/m 3,2 km/h (1 Bft)
19.06.2010 07:00 10,9 C 96 % 1005,8 hPa 0,0 l/m N-NO 0,00 h 101 W/m 5,3 km/h (1 Bft)
19.06.2010 08:00 11,4 C 95 % 1005,6 hPa 0,0 l/m N 0,00 h 176 W/m 9,8 km/h (2 Bft)
19.06.2010 09:00 11,9 C 91 % 1005,6 hPa 0,0 l/m N 0,00 h 197 W/m 11,8 km/h (2 Bft)
19.06.2010 10:00 12,0 C 89 % 1005,7 hPa 0,0 l/m N 0,25 h 332 W/m 16,1 km/h (3 Bft)
19.06.2010 11:00 11,3 C 88 % 1005,7 hPa 0,0 l/m N-NW 0,00 h 236 W/m 15,3 km/h (3 Bft)
19.06.2010 12:00 10,9 C 90 % 1005,9 hPa 0,2 l/m N-NO 0,00 h 237 W/m 12,5 km/h (3 Bft)
19.06.2010 13:00 10,6 C 91 % 1005,9 hPa 0,4 l/m N 0,00 h 199 W/m 14,0 km/h (3 Bft)
19.06.2010 14:00 10,5 C 91 % 1005,8 hPa 0,6 l/m N-NW 0,00 h 256 W/m 13,3 km/h (3 Bft)
19.06.2010 15:00 10,2 C 91 % 1005,9 hPa 0,4 l/m N-NO 0,00 h 216 W/m 12,6 km/h (3 Bft)
19.06.2010 16:00 10,0 C 91 % 1006,1 hPa 0,2 l/m N 0,00 h 181 W/m 13,7 km/h (3 Bft)
19.06.2010 17:00 9,5 C 92 % 1006,3 hPa 0,4 l/m N-NO 0,00 h 161 W/m 12,1 km/h (2 Bft)
19.06.2010 18:00 9,5 C 90 % 1006,4 hPa 0,2 l/m N 0,00 h 83 W/m 7,0 km/h (2 Bft)
19.06.2010 19:00 9,7 C 89 % 1006,3 hPa 0,0 l/m O 0,08 h 81 W/m 3,2 km/h (1 Bft)
19.06.2010 20:00 9,9 C 90 % 1006,6 hPa 0,0 l/m N 0,33 h 55 W/m 1,5 km/h (1 Bft)
19.06.2010 21:00 9,8 C 91 % 1006,9 hPa 0,0 l/m N 0,25 h 16 W/m 0,5 km/h (0 Bft)
19.06.2010 22:00 9,1 C 92 % 1007,1 hPa 0,0 l/m N 0,00 h 0 W/m 0,8 km/h (0 Bft)
19.06.2010 23:00 8,3 C 93 % 1007,1 hPa 0,0 l/m N 0,00 h 0 W/m 0,3 km/h (0 Bft)
20.06.2010 00:00 7,7 C 94 % 1007,2 hPa 0,0 l/m N 0,00 h 0 W/m 0,0 km/h (0 Bft)
20.06.2010 01:00 7,4 C 95 % 1007,1 hPa 0,0 l/m N 0,00 h 0 W/m 0,0 km/h (0 Bft)
20.06.2010 02:00 7,2 C 95 % 1007,0 hPa 0,0 l/m N 0,00 h 0 W/m 0,0 km/h (0 Bft)
20.06.2010 03:00 7,0 C 96 % 1007,0 hPa 0,0 l/m N 0,00 h 0 W/m 1,1 km/h (0 Bft)
20.06.2010 04:00 6,8 C 96 % 1007,1 hPa 0,0 l/m N 0,00 h 0 W/m 2,8 km/h (1 Bft)
20.06.2010 05:00 6,7 C 97 % 1007,2 hPa 0,0 l/m N-NW 0,00 h 11 W/m 5,9 km/h (2 Bft)
20.06.2010 06:00 6,6 C 96 % 1007,7 hPa 0,0 l/m N 0,00 h 50 W/m 7,3 km/h (2 Bft)
20.06.2010 07:00 7,1 C 97 % 1008,3 hPa 0,0 l/m N 0,00 h 107 W/m 6,4 km/h (2 Bft)
20.06.2010 08:00 8,0 C 94 % 1008,7 hPa 0,0 l/m N-NO 0,00 h 168 W/m 10,6 km/h (2 Bft)
20.06.2010 09:00 9,1 C 89 % 1009,1 hPa 0,0 l/m N-NO 0,17 h 222 W/m 11,8 km/h (2 Bft)
20.06.2010 10:00 9,8 C 85 % 1009,7 hPa 0,0 l/m NO 0,00 h 210 W/m 12,4 km/h (3 Bft)
20.06.2010 11:00 10,6 C 83 % 1010,2 hPa 0,0 l/m N-NO 0,00 h 248 W/m 11,1 km/h (2 Bft)
20.06.2010 12:00 10,1 C 88 % 1010,5 hPa 0,4 l/m N-NO 0,00 h 204 W/m 9,0 km/h (2 Bft)
20.06.2010 13:00 10,9 C 85 % 1010,6 hPa 0,0 l/m O 0,08 h 290 W/m 12,1 km/h (2 Bft)
20.06.2010 14:00 10,6 C 83 % 1010,9 hPa 0,0 l/m O-SO 0,00 h 260 W/m 15,2 km/h (3 Bft)
20.06.2010 15:00 10,7 C 83 % 1011,3 hPa 0,0 l/m NO 0,00 h 263 W/m 12,5 km/h (3 Bft)
20.06.2010 16:00 10,9 C 80 % 1011,7 hPa 0,0 l/m NO 0,00 h 114 W/m 12,6 km/h (3 Bft)
20.06.2010 17:00 10,6 C 84 % 1011,9 hPa 0,0 l/m N 0,00 h 75 W/m 7,2 km/h (2 Bft)
20.06.2010 18:00 10,6 C 86 % 1012,4 hPa 0,0 l/m N 0,00 h 45 W/m 6,7 km/h (2 Bft)
20.06.2010 19:00 10,4 C 89 % 1012,8 hPa 0,0 l/m N-NW 0,00 h 23 W/m 4,9 km/h (1 Bft)
20.06.2010 20:00 10,3 C 90 % 1013,2 hPa 0,0 l/m N 0,00 h 8 W/m 3,5 km/h (1 Bft)
20.06.2010 21:00 10,1 C 90 % 1013,8 hPa 0,0 l/m N-NW 0,00 h 0 W/m 4,4 km/h (1 Bft)
20.06.2010 22:00 9,9 C 92 % 1014,5 hPa 0,0 l/m N 0,00 h 0 W/m 1,2 km/h (1 Bft)
20.06.2010 23:00 9,8 C 93 % 1014,7 hPa 0,0 l/m N-NW 0,00 h 0 W/m 1,5 km/h (1 Bft)
Min-Datum _ 20.06.10 14.06.10 19.06.10 - - - - 14.06.10
_ Min-Zeit 06:05 15:20 09:35 - - - - 00:00
Minimum _ 6,5 C 50 % 1005,4 hPa - - - - 0,0 km/h (0 Bft)
Max-Datum _ 14.06.10 14.06.10 20.06.10 18.06.10 - 14.06.10 14.06.10 16.06.10
_ Max-Zeit 15:35 01:45 23:55 06:05 - 07:25 13:20 16:25
Maximum _ 21,2 C 98 % 1014,9 hPa 7,0 l/m - 0,08 h 1153 W/m 33,8 km/h
O-NO (5 Bft)
Durchschnitt _ 13,2 C 90 % 1010,6 hPa #69,6 l/m O-NO #8:10 h 151 W/m 11,3 km/h (2 Bft)